Time;durP1;ratioP1;P1;durP2;ratioP2;P2;SDS_P1;SDS_P2;PMS_P1;PMS_P2;Temp;Humidity;BMP_temperature;BMP_pressure;BME280_temperature;BME280_humidity;BME280_pressure;Samples;Min_cycle;Max_cycle;Signal;HPM_P1;HPM_P2
2022/01/19 00:00:07;;;;;;;314.93;67.67;;;;;;;1.62;55.15;101053.13;341021;28;866;-68
2022/01/19 00:00:18;;;;;;;314.25;67.00;;;;;;;1.63;55.66;101046.25;339509;28;916;-69
2022/01/19 00:00:28;;;;;;;314.27;67.20;;;;;;;1.60;54.93;101049.66;335826;29;1311;-69
2022/01/19 00:00:38;;;;;;;312.45;66.53;;;;;;;1.58;55.16;101046.19;338193;29;933;-68
2022/01/19 00:00:49;;;;;;;314.10;66.83;;;;;;;1.56;55.20;101047.84;341058;28;778;-68
2022/01/19 00:00:59;;;;;;;316.48;67.15;;;;;;;1.56;54.96;101049.56;340700;28;869;-69
2022/01/19 00:01:10;;;;;;;316.60;66.57;;;;;;;1.57;55.23;101051.31;342487;28;939;-68
2022/01/19 00:01:20;;;;;;;314.15;67.45;;;;;;;1.56;54.94;101054.72;338637;29;814;-68
2022/01/19 00:01:31;;;;;;;313.37;68.50;;;;;;;1.56;55.04;101050.44;335815;29;1509;-68
2022/01/19 00:01:41;;;;;;;312.67;68.28;;;;;;;1.57;55.13;101053.88;339538;29;834;-68
2022/01/19 00:01:52;;;;;;;311.77;66.85;;;;;;;1.57;55.14;101049.59;339817;29;893;-68
2022/01/19 00:02:03;;;;;;;312.20;65.93;;;;;;;1.60;54.98;101056.53;340734;28;1318;-68
2022/01/19 00:02:13;;;;;;;315.30;66.75;;;;;;;1.62;55.57;101049.69;342359;28;924;-68
2022/01/19 00:02:23;;;;;;;316.93;66.27;;;;;;;1.62;55.66;101049.69;339734;28;1105;-68
2022/01/19 00:02:34;;;;;;;315.92;65.30;;;;;;;1.63;55.45;101052.28;339685;28;1381;-68
2022/01/19 00:02:44;;;;;;;312.33;65.40;;;;;;;1.65;55.14;101049.75;340517;28;1668;-68
2022/01/19 00:02:54;;;;;;;313.38;65.80;;;;;;;1.64;55.13;101050.59;342290;28;1217;-68
2022/01/19 00:03:05;;;;;;;312.27;65.97;;;;;;;1.64;55.65;101054.03;340556;28;1342;-68
2022/01/19 00:03:15;;;;;;;313.50;66.88;;;;;;;1.66;55.07;101051.47;339635;28;1313;-68
2022/01/19 00:03:26;;;;;;;313.00;67.20;;;;;;;1.66;55.05;101047.19;338286;29;869;-68
2022/01/19 00:03:36;;;;;;;314.10;67.30;;;;;;;1.67;55.49;101051.50;336620;29;1352;-68
2022/01/19 00:03:46;;;;;;;314.00;66.40;;;;;;;1.66;54.95;101049.78;339364;28;1317;-69
2022/01/19 00:03:57;;;;;;;315.67;65.78;;;;;;;1.65;55.20;101049.75;342350;28;1169;-68
2022/01/19 00:04:07;;;;;;;314.83;65.97;;;;;;;1.65;55.46;101055.78;340919;28;1065;-68
2022/01/19 00:04:17;;;;;;;315.50;65.43;;;;;;;1.63;55.54;101047.13;340161;28;1286;-68
2022/01/19 00:04:28;;;;;;;312.98;66.47;;;;;;;1.63;55.20;101048.84;340227;28;1626;-67
2022/01/19 00:04:39;;;;;;;312.77;66.33;;;;;;;1.63;55.44;101047.13;343660;28;1003;-68
2022/01/19 00:04:50;;;;;;;312.13;66.22;;;;;;;1.65;55.48;101053.19;342321;28;1611;-67
2022/01/19 00:05:00;;;;;;;314.27;66.80;;;;;;;1.67;54.99;101058.38;342313;28;809;-67
2022/01/19 00:05:11;;;;;;;313.75;66.47;;;;;;;1.66;54.87;101047.19;341694;28;1292;-67
2022/01/19 00:05:22;;;;;;;312.52;66.00;;;;;;;1.66;55.78;101052.34;341333;28;913;-67
2022/01/19 00:05:33;;;;;;;310.15;64.88;;;;;;;1.67;55.60;101048.06;339253;29;2002;-68
2022/01/19 00:05:43;;;;;;;310.48;65.45;;;;;;;1.68;55.07;101047.22;339660;29;1337;-68
2022/01/19 00:05:54;;;;;;;312.47;66.57;;;;;;;1.70;54.77;101049.81;342202;28;1427;-68
2022/01/19 00:06:05;;;;;;;312.98;66.97;;;;;;;1.67;55.30;101054.09;340991;28;1235;-68
2022/01/19 00:06:15;;;;;;;313.70;67.80;;;;;;;1.65;55.82;101055.78;341141;28;1077;-68
2022/01/19 00:06:26;;;;;;;312.75;67.63;;;;;;;1.63;55.00;101047.13;341080;28;885;-68
2022/01/19 00:06:36;;;;;;;313.83;68.40;;;;;;;1.65;54.69;101052.31;339607;29;1321;-68
2022/01/19 00:06:46;;;;;;;312.77;67.77;;;;;;;1.64;55.12;101054.03;342090;28;1473;-69
2022/01/19 00:06:57;;;;;;;312.77;66.23;;;;;;;1.64;55.22;101048.88;341743;28;2064;-68
2022/01/19 00:07:07;;;;;;;312.97;66.07;;;;;;;1.64;55.22;101051.44;340811;28;1150;-68
2022/01/19 00:07:18;;;;;;;313.05;66.00;;;;;;;1.65;54.50;101049.75;338322;29;1278;-68
2022/01/19 00:07:28;;;;;;;314.30;66.57;;;;;;;1.66;55.45;101049.78;340881;28;1140;-68
2022/01/19 00:07:39;;;;;;;313.38;66.55;;;;;;;1.64;55.31;101054.03;340903;28;1223;-69
2022/01/19 00:07:49;;;;;;;312.50;65.50;;;;;;;1.64;55.79;101054.03;338246;29;1232;-67
2022/01/19 00:07:59;;;;;;;310.87;65.50;;;;;;;1.65;55.01;101049.75;340868;28;850;-68
2022/01/19 00:08:17;;;;;;;311.87;65.53;;;;;;;1.65;54.91;101050.59;338649;29;1297;-68
2022/01/19 00:08:28;;;;;;;311.83;66.38;;;;;;;1.66;55.65;101054.94;340255;28;1149;-68
2022/01/19 00:08:39;;;;;;;311.75;66.38;;;;;;;1.66;54.96;101062.66;340696;28;1668;-68
2022/01/19 00:08:50;;;;;;;313.15;68.22;;;;;;;1.64;55.84;101055.75;338671;28;1279;-69
2022/01/19 00:09:00;;;;;;;314.60;68.07;;;;;;;1.63;55.24;101054.88;340727;28;1371;-67
2022/01/19 00:09:11;;;;;;;314.75;67.82;;;;;;;1.65;54.89;101052.31;342126;28;1363;-67
2022/01/19 00:09:23;;;;;;;313.87;66.20;;;;;;;1.67;55.86;101058.38;342134;28;1275;-67
2022/01/19 00:09:34;;;;;;;312.60;65.72;;;;;;;1.67;54.78;101056.66;341334;28;1168;-67
2022/01/19 00:09:44;;;;;;;311.50;65.37;;;;;;;1.69;55.20;101061.84;336758;29;1328;-67
2022/01/19 00:09:54;;;;;;;314.52;66.28;;;;;;;1.70;55.12;101058.44;339595;29;1243;-67
2022/01/19 00:10:09;;;;;;;314.97;67.13;;;;;;;1.70;55.23;101062.72;339916;28;1376;-67
2022/01/19 00:10:26;;;;;;;312.67;66.22;;;;;;;1.67;55.31;101059.25;340936;28;845;-68
2022/01/19 00:10:37;;;;;;;312.38;65.60;;;;;;;1.67;54.72;101060.97;339521;29;1032;-68
2022/01/19 00:10:48;;;;;;;312.57;65.47;;;;;;;1.66;55.01;101056.63;337707;29;1934;-68
2022/01/19 00:10:59;;;;;;;312.65;65.13;;;;;;;1.66;55.20;101062.66;342004;28;1639;-68
2022/01/19 00:11:09;;;;;;;312.77;64.80;;;;;;;1.64;55.36;101066.94;341921;28;1355;-68
2022/01/19 00:11:20;;;;;;;312.05;65.82;;;;;;;1.62;55.13;101054.84;338385;29;1366;-68
2022/01/19 00:11:30;;;;;;;311.70;65.53;;;;;;;1.63;55.56;101062.63;339370;29;1185;-68
2022/01/19 00:11:41;;;;;;;311.58;65.38;;;;;;;1.65;55.58;101067.81;339652;29;837;-68
2022/01/19 00:11:51;;;;;;;310.70;64.57;;;;;;;1.64;55.48;101064.34;339827;28;1847;-68
2022/01/19 00:12:01;;;;;;;311.40;64.25;;;;;;;1.63;55.13;101059.16;342112;28;1143;-68
2022/01/19 00:12:12;;;;;;;311.93;64.23;;;;;;;1.60;54.66;101062.56;339700;28;1406;-68
2022/01/19 00:12:22;;;;;;;313.13;64.80;;;;;;;1.63;55.44;101067.78;339638;28;1252;-68
2022/01/19 00:12:33;;;;;;;312.87;65.03;;;;;;;1.65;54.99;101066.09;342039;28;880;-68
2022/01/19 00:12:45;;;;;;;316.20;65.93;;;;;;;1.66;55.10;101062.66;339138;28;1226;-68
2022/01/19 00:12:56;;;;;;;315.98;66.30;;;;;;;1.66;55.32;101064.38;342001;28;1464;-68
2022/01/19 00:13:06;;;;;;;314.92;66.97;;;;;;;1.65;55.47;101066.09;341799;28;1268;-68
2022/01/19 00:13:17;;;;;;;313.20;67.03;;;;;;;1.64;55.74;101066.06;341132;28;870;-68
2022/01/19 00:13:27;;;;;;;311.80;66.93;;;;;;;1.64;55.57;101063.47;342004;28;1183;-68
2022/01/19 00:13:38;;;;;;;311.43;66.87;;;;;;;1.65;55.09;101066.09;339433;28;1330;-68
2022/01/19 00:13:49;;;;;;;311.67;66.93;;;;;;;1.67;54.97;101064.41;336829;28;4142;-68
2022/01/19 00:14:00;;;;;;;312.40;67.03;;;;;;;1.68;54.92;101065.28;335642;29;842;-68
2022/01/19 00:14:10;;;;;;;312.55;66.60;;;;;;;1.65;54.95;101068.66;340544;28;1429;-68
2022/01/19 00:14:21;;;;;;;311.13;65.43;;;;;;;1.63;55.56;101066.91;344562;28;2050;-68
2022/01/19 00:14:31;;;;;;;310.80;64.90;;;;;;;1.60;55.16;101064.25;343622;28;1820;-68
2022/01/19 00:14:41;;;;;;;309.43;64.77;;;;;;;1.60;55.85;101065.13;340838;28;1312;-68
2022/01/19 00:14:52;;;;;;;310.87;65.93;;;;;;;1.63;55.37;101066.91;339464;28;1210;-68
2022/01/19 00:15:02;;;;;;;309.52;66.53;;;;;;;1.61;55.64;101064.28;339892;28;1327;-68
2022/01/19 00:15:13;;;;;;;310.30;66.65;;;;;;;1.62;54.98;101066.03;342132;28;881;-68
2022/01/19 00:15:24;;;;;;;309.93;66.30;;;;;;;1.61;55.50;101063.41;342183;28;1586;-68
2022/01/19 00:15:34;;;;;;;310.50;65.95;;;;;;;1.62;55.25;101068.63;338062;28;2053;-68
2022/01/19 00:15:45;;;;;;;310.65;64.75;;;;;;;1.63;55.34;101066.91;342135;28;1204;-68
2022/01/19 00:15:56;;;;;;;309.25;64.13;;;;;;;1.64;55.05;101066.94;341093;28;853;-68
2022/01/19 00:16:06;;;;;;;311.33;64.47;;;;;;;1.63;55.29;101067.78;341937;28;1129;-68
2022/01/19 00:16:17;;;;;;;310.70;65.10;;;;;;;1.57;54.64;101064.19;342155;28;989;-68
2022/01/19 00:16:28;;;;;;;312.52;66.53;;;;;;;1.55;55.10;101064.19;342245;28;1009;-68
2022/01/19 00:16:39;;;;;;;310.20;65.93;;;;;;;1.54;55.35;101066.72;339495;29;1220;-68
2022/01/19 00:16:49;;;;;;;309.50;65.90;;;;;;;1.53;55.31;101070.13;338182;29;1364;-68
2022/01/19 00:16:59;;;;;;;308.23;65.20;;;;;;;1.53;55.91;101068.44;343517;28;2407;-69
2022/01/19 00:17:10;;;;;;;308.83;65.57;;;;;;;1.54;55.98;101069.31;342287;28;1180;-68
2022/01/19 00:17:20;;;;;;;310.92;65.53;;;;;;;1.52;55.46;101066.69;343607;28;952;-68
2022/01/19 00:17:31;;;;;;;312.47;66.57;;;;;;;1.54;55.89;101070.19;343515;28;1203;-68
2022/01/19 00:17:41;;;;;;;312.83;66.80;;;;;;;1.56;54.81;101077.94;340757;28;1041;-68
2022/01/19 00:17:57;;;;;;;311.63;66.03;;;;;;;1.57;55.35;101069.38;343438;28;1342;-68
2022/01/19 00:18:08;;;;;;;309.52;63.78;;;;;;;1.58;54.99;101064.22;340380;28;1271;-68
2022/01/19 00:18:20;;;;;;;309.80;64.23;;;;;;;1.55;55.35;101063.31;339638;28;889;-68
2022/01/19 00:18:30;;;;;;;311.58;65.50;;;;;;;1.53;55.46;101071.00;339468;28;1406;-68
2022/01/19 00:18:41;;;;;;;311.20;65.90;;;;;;;1.51;55.75;101067.53;340530;28;1409;-68
2022/01/19 00:18:51;;;;;;;310.53;65.37;;;;;;;1.50;55.65;101072.66;340415;28;1386;-68
2022/01/19 00:19:01;;;;;;;312.48;65.20;;;;;;;1.50;55.34;101065.78;340772;28;939;-68
2022/01/19 00:19:12;;;;;;;313.80;65.13;;;;;;;1.52;55.89;101068.41;342314;28;929;-68
2022/01/19 00:19:22;;;;;;;315.58;65.82;;;;;;;1.54;55.86;101070.19;343651;28;821;-69
2022/01/19 00:19:33;;;;;;;313.53;65.67;;;;;;;1.57;55.78;101066.78;343472;28;1493;-68
2022/01/19 00:19:43;;;;;;;312.08;64.85;;;;;;;1.58;55.33;101071.97;342098;28;862;-68
2022/01/19 00:19:53;;;;;;;311.17;64.97;;;;;;;1.56;55.27;101067.63;341060;28;1506;-68
2022/01/19 00:20:05;;;;;;;312.15;65.90;;;;;;;1.58;55.86;101069.41;340722;28;1327;-68
2022/01/19 00:20:16;;;;;;;312.27;66.40;;;;;;;1.60;55.45;101078.03;341070;28;818;-68
2022/01/19 00:20:28;;;;;;;312.57;66.03;;;;;;;1.59;55.46;101075.41;340278;28;958;-68
2022/01/19 00:20:38;;;;;;;313.65;65.13;;;;;;;1.60;55.67;101072.88;340928;28;853;-68
2022/01/19 00:20:49;;;;;;;314.15;65.50;;;;;;;1.60;55.60;101072.88;339437;29;905;-67
2022/01/19 00:20:59;;;;;;;313.02;66.00;;;;;;;1.60;55.78;101078.03;340808;28;924;-67
2022/01/19 00:21:10;;;;;;;311.77;65.37;;;;;;;1.57;56.30;101077.09;342035;28;1270;-67
2022/01/19 00:21:20;;;;;;;312.15;65.20;;;;;;;1.56;55.59;101073.66;343358;28;1390;-67
2022/01/19 00:21:32;;;;;;;312.20;65.83;;;;;;;1.57;55.65;101077.09;344810;28;844;-67
2022/01/19 00:21:43;;;;;;;312.42;66.22;;;;;;;1.58;55.51;101077.13;343506;28;1306;-67
2022/01/19 00:21:53;;;;;;;309.92;64.82;;;;;;;1.59;55.75;101073.72;343603;28;841;-67
2022/01/19 00:22:03;;;;;;;311.23;64.63;;;;;;;1.58;56.60;101074.56;342127;28;1250;-67
2022/01/19 00:22:14;;;;;;;311.80;64.50;;;;;;;1.60;55.74;101078.03;339513;29;1391;-67
2022/01/19 00:22:24;;;;;;;311.93;65.43;;;;;;;1.59;55.37;101081.44;343448;28;1333;-69
2022/01/19 00:22:35;;;;;;;311.15;65.32;;;;;;;1.59;55.37;101075.41;343531;28;870;-68
2022/01/19 00:22:45;;;;;;;311.03;65.57;;;;;;;1.60;55.48;101078.03;341937;28;1386;-67
2022/01/19 00:22:55;;;;;;;310.25;65.45;;;;;;;1.61;55.90;101078.91;337523;29;1278;-67
2022/01/19 00:23:06;;;;;;;310.57;66.17;;;;;;;1.58;55.97;101074.56;340185;28;1635;-67
2022/01/19 00:23:18;;;;;;;311.00;65.93;;;;;;;1.58;56.13;101077.13;338812;28;1200;-67
2022/01/19 00:23:29;;;;;;;310.55;66.05;;;;;;;1.57;55.75;101083.13;340531;28;1877;-67
2022/01/19 00:23:39;;;;;;;311.13;66.78;;;;;;;1.57;56.06;101077.97;339226;28;1191;-67
2022/01/19 00:23:49;;;;;;;311.80;67.70;;;;;;;1.55;55.74;101073.63;340187;28;1478;-67
2022/01/19 00:24:00;;;;;;;310.53;66.57;;;;;;;1.52;55.30;101069.28;340518;28;1295;-67
2022/01/19 00:24:10;;;;;;;312.00;66.37;;;;;;;1.47;55.90;101073.47;339613;29;1491;-67
2022/01/19 00:24:21;;;;;;;312.53;65.83;;;;;;;1.45;55.71;101070.00;340742;28;982;-68
2022/01/19 00:24:31;;;;;;;311.87;65.70;;;;;;;1.45;56.60;101077.72;340712;28;1289;-67
2022/01/19 00:24:43;;;;;;;310.53;64.77;;;;;;;1.45;56.84;101074.28;338078;29;1624;-68
2022/01/19 00:24:54;;;;;;;309.10;64.43;;;;;;;1.44;56.10;101068.25;340819;28;874;-67
2022/01/19 00:25:06;;;;;;;311.13;65.00;;;;;;;1.47;55.61;101070.03;340504;28;1290;-67
2022/01/19 00:25:17;;;;;;;313.23;65.38;;;;;;;1.47;56.07;101072.59;339598;29;1202;-67
2022/01/19 00:25:27;;;;;;;313.10;64.92;;;;;;;1.49;56.47;101068.34;338099;29;1284;-68
2022/01/19 00:25:38;;;;;;;311.67;64.30;;;;;;;1.51;55.74;101071.81;339871;28;1397;-68
2022/01/19 00:25:49;;;;;;;312.60;64.90;;;;;;;1.53;56.57;101067.56;342029;28;1054;-68
2022/01/19 00:25:59;;;;;;;313.52;65.63;;;;;;;1.53;56.31;101076.16;342090;28;1077;-68
2022/01/19 00:26:10;;;;;;;312.90;66.47;;;;;;;1.53;55.19;101065.84;339472;29;1471;-68
2022/01/19 00:26:20;;;;;;;312.83;66.40;;;;;;;1.48;56.05;101064.91;337615;29;1196;-68
2022/01/19 00:26:31;;;;;;;315.10;67.27;;;;;;;1.50;55.29;101070.94;342248;28;1260;-69
2022/01/19 00:26:42;;;;;;;313.83;66.70;;;;;;;1.50;56.22;101070.94;343318;28;1283;-68
2022/01/19 00:26:52;;;;;;;312.05;66.22;;;;;;;1.51;56.18;101064.94;340739;28;905;-68
2022/01/19 00:27:03;;;;;;;311.90;65.73;;;;;;;1.53;55.40;101064.97;340315;28;1166;-68
2022/01/19 00:27:13;;;;;;;311.55;65.25;;;;;;;1.53;56.44;101065.84;342319;28;1565;-68
2022/01/19 00:27:23;;;;;;;312.25;65.00;;;;;;;1.53;55.62;101064.97;339435;28;2106;-68
2022/01/19 00:27:34;;;;;;;312.20;65.17;;;;;;;1.50;55.97;101070.09;340893;28;870;-68
2022/01/19 00:27:44;;;;;;;313.20;65.28;;;;;;;1.48;55.59;101071.75;337946;29;980;-67
2022/01/19 00:27:55;;;;;;;312.70;66.37;;;;;;;1.47;56.55;101073.47;340605;28;1280;-67
2022/01/19 00:28:05;;;;;;;312.00;66.57;;;;;;;1.46;56.29;101074.31;342085;28;1246;-68
2022/01/19 00:28:16;;;;;;;311.70;66.23;;;;;;;1.49;56.55;101068.34;340696;28;1924;-68
2022/01/19 00:28:27;;;;;;;311.38;66.85;;;;;;;1.48;56.26;101062.31;337202;29;1704;-68
2022/01/19 00:28:37;;;;;;;311.13;67.32;;;;;;;1.50;55.70;101068.38;339391;28;1451;-68
2022/01/19 00:28:48;;;;;;;310.20;67.47;;;;;;;1.53;55.63;101067.56;339605;28;1225;-68
2022/01/19 00:28:59;;;;;;;311.48;66.43;;;;;;;1.52;56.34;101061.53;340540;28;998;-68
2022/01/19 00:29:10;;;;;;;311.33;65.35;;;;;;;1.53;55.79;101071.00;342148;28;924;-68
2022/01/19 00:29:20;;;;;;;310.77;64.43;;;;;;;1.54;56.49;101066.72;339319;29;1022;-67
2022/01/19 00:29:31;;;;;;;310.15;64.32;;;;;;;1.53;56.76;101071.00;340542;28;932;-68
2022/01/19 00:29:41;;;;;;;311.33;64.97;;;;;;;1.55;56.44;101071.91;341402;28;1006;-68
2022/01/19 00:29:51;;;;;;;312.27;65.72;;;;;;;1.56;56.38;101071.06;342020;28;843;-68
2022/01/19 00:30:02;;;;;;;311.67;65.73;;;;;;;1.54;55.97;101065.00;342165;28;901;-68
2022/01/19 00:30:13;;;;;;;309.58;65.25;;;;;;;1.50;55.64;101065.78;341949;28;1276;-68
2022/01/19 00:30:24;;;;;;;311.58;65.20;;;;;;;1.51;55.25;101067.53;339392;29;1343;-68
2022/01/19 00:30:34;;;;;;;314.20;65.60;;;;;;;1.50;55.85;101068.38;338403;29;854;-68
2022/01/19 00:30:44;;;;;;;316.17;65.70;;;;;;;1.51;55.96;101067.53;339579;29;913;-68
2022/01/19 00:30:55;;;;;;;312.90;65.93;;;;;;;1.51;56.38;101075.28;338974;29;1887;-68
2022/01/19 00:31:05;;;;;;;311.07;65.80;;;;;;;1.49;56.19;101071.78;341915;28;928;-68
2022/01/19 00:31:16;;;;;;;309.13;65.30;;;;;;;1.50;56.22;101068.38;339436;29;1218;-68
2022/01/19 00:31:26;;;;;;;310.13;64.13;;;;;;;1.50;55.71;101068.38;339768;29;941;-68
2022/01/19 00:31:36;;;;;;;311.40;64.30;;;;;;;1.52;55.47;101078.72;339767;29;877;-68
2022/01/19 00:31:47;;;;;;;312.38;65.88;;;;;;;1.52;56.25;101074.44;338323;29;1513;-68
2022/01/19 00:31:57;;;;;;;314.27;67.00;;;;;;;1.52;56.28;101074.44;340595;28;1279;-68
2022/01/19 00:32:07;;;;;;;314.27;66.50;;;;;;;1.50;55.94;101064.94;340807;28;802;-68
2022/01/19 00:32:19;;;;;;;314.57;65.70;;;;;;;1.49;56.14;101071.78;340991;28;797;-68
2022/01/19 00:32:29;;;;;;;313.08;64.70;;;;;;;1.50;56.01;101083.84;340866;28;853;-68
2022/01/19 00:32:40;;;;;;;312.73;65.27;;;;;;;1.52;55.89;101077.00;340810;28;1040;-68
2022/01/19 00:32:50;;;;;;;313.48;66.00;;;;;;;1.54;55.84;101072.75;343571;28;1224;-68
2022/01/19 00:33:01;;;;;;;312.27;66.60;;;;;;;1.54;55.64;101077.91;343336;28;1275;-68
2022/01/19 00:33:13;;;;;;;313.88;66.50;;;;;;;1.55;56.37;101071.91;339742;28;1216;-68
2022/01/19 00:33:23;;;;;;;313.70;67.28;;;;;;;1.51;56.33;101072.69;335221;29;1306;-68
2022/01/19 00:33:34;;;;;;;312.45;67.35;;;;;;;1.50;56.56;101081.28;340434;28;1077;-69
2022/01/19 00:33:44;;;;;;;311.37;67.13;;;;;;;1.48;55.23;101075.22;340627;28;813;-69
2022/01/19 00:33:55;;;;;;;309.52;66.35;;;;;;;1.52;56.33;101078.72;342115;28;865;-69
2022/01/19 00:34:05;;;;;;;310.27;65.70;;;;;;;1.52;56.09;101078.72;340805;28;940;-69
2022/01/19 00:34:15;;;;;;;309.15;64.70;;;;;;;1.53;56.01;101080.47;338211;29;893;-69
2022/01/19 00:34:26;;;;;;;311.73;65.47;;;;;;;1.51;56.31;101072.69;339500;29;845;-69
2022/01/19 00:34:36;;;;;;;310.77;65.23;;;;;;;1.52;55.32;101079.59;341109;28;1316;-69
2022/01/19 00:34:47;;;;;;;311.83;65.00;;;;;;;1.52;55.92;101071.84;342312;28;889;-69
2022/01/19 00:34:57;;;;;;;310.87;64.93;;;;;;;1.54;55.93;101072.75;341941;28;1329;-69
2022/01/19 00:35:09;;;;;;;310.10;65.22;;;;;;;1.52;56.20;101079.59;342109;28;952;-69
2022/01/19 00:35:19;;;;;;;310.15;64.32;;;;;;;1.52;56.05;101074.44;342352;28;854;-67
2022/01/19 00:35:30;;;;;;;311.03;63.80;;;;;;;1.51;56.01;101070.13;340874;28;1371;-67
2022/01/19 00:35:41;;;;;;;311.45;65.07;;;;;;;1.52;56.35;101079.59;339430;29;1455;-67
2022/01/19 00:35:51;;;;;;;313.00;65.55;;;;;;;1.53;56.02;101076.16;340826;28;904;-68
2022/01/19 00:36:02;;;;;;;313.20;65.67;;;;;;;1.54;55.97;101077.91;337686;29;2160;-68
2022/01/19 00:36:12;;;;;;;313.75;65.60;;;;;;;1.54;55.98;101077.91;340812;28;1412;-68
2022/01/19 00:36:22;;;;;;;313.10;66.43;;;;;;;1.55;55.66;101074.50;339457;29;1121;-68
2022/01/19 00:36:33;;;;;;;311.42;66.38;;;;;;;1.54;56.10;101083.06;340752;28;1227;-68
2022/01/19 00:36:43;;;;;;;313.10;67.20;;;;;;;1.56;56.07;101076.22;340698;28;1191;-69
2022/01/19 00:36:54;;;;;;;313.15;66.05;;;;;;;1.56;56.21;101086.56;340821;28;860;-69
2022/01/19 00:37:05;;;;;;;313.30;66.43;;;;;;;1.54;55.96;101077.91;337926;28;1387;-69
2022/01/19 00:37:15;;;;;;;313.02;65.88;;;;;;;1.54;56.09;101077.03;340964;28;865;-69
2022/01/19 00:37:26;;;;;;;313.17;66.10;;;;;;;1.54;55.90;101082.19;340720;28;1181;-69
2022/01/19 00:37:40;;;;;;;311.75;65.20;;;;;;;1.50;55.85;101082.97;340567;28;1319;-69
2022/01/19 00:37:50;;;;;;;309.52;64.78;;;;;;;1.47;56.24;101080.34;339457;28;1263;-69
2022/01/19 00:38:02;;;;;;;310.42;64.43;;;;;;;1.45;55.90;101074.28;336979;29;1961;-69
2022/01/19 00:38:12;;;;;;;312.38;64.55;;;;;;;1.43;56.29;101081.13;337953;29;1793;-69
2022/01/19 00:38:23;;;;;;;312.05;65.20;;;;;;;1.41;55.91;101081.09;335785;29;1204;-69
2022/01/19 00:38:33;;;;;;;309.37;65.00;;;;;;;1.41;55.77;101083.66;337580;28;1128;-69
2022/01/19 00:38:43;;;;;;;309.38;65.60;;;;;;;1.43;55.96;101073.38;339259;28;826;-69
2022/01/19 00:38:54;;;;;;;309.07;65.03;;;;;;;1.44;56.29;101083.72;341933;28;942;-68
2022/01/19 00:39:04;;;;;;;310.83;65.82;;;;;;;1.43;55.83;101078.53;341812;28;1849;-68
2022/01/19 00:39:15;;;;;;;310.40;65.20;;;;;;;1.45;56.34;101082.88;340098;28;1197;-68
2022/01/19 00:39:31;;;;;;;311.43;65.53;;;;;;;1.44;56.30;101081.16;339543;29;999;-68
2022/01/19 00:39:41;;;;;;;310.80;65.22;;;;;;;1.44;55.66;101083.72;339306;29;1424;-68
2022/01/19 00:39:51;;;;;;;310.87;65.63;;;;;;;1.42;56.61;101087.97;339411;29;1181;-68
2022/01/19 00:40:03;;;;;;;309.23;65.50;;;;;;;1.43;56.35;101084.56;340827;28;861;-68
2022/01/19 00:40:14;;;;;;;311.05;65.43;;;;;;;1.42;56.03;101090.56;342009;28;1242;-68
2022/01/19 00:40:25;;;;;;;311.67;65.68;;;;;;;1.42;56.26;101076.78;339800;28;1492;-68
2022/01/19 00:40:38;;;;;;;312.43;64.90;;;;;;;1.40;56.04;101087.09;338218;29;857;-68
2022/01/19 00:40:49;;;;;;;312.55;65.30;;;;;;;1.41;56.02;101075.94;340659;28;1334;-68
2022/01/19 00:41:01;;;;;;;311.37;64.93;;;;;;;1.38;56.73;101081.03;343276;28;1256;-68
2022/01/19 00:41:11;;;;;;;314.67;66.13;;;;;;;1.36;55.92;101087.84;343346;28;880;-68
2022/01/19 00:41:22;;;;;;;314.23;65.90;;;;;;;1.35;55.93;101086.13;341760;28;1549;-68
2022/01/19 00:41:32;;;;;;;314.97;66.07;;;;;;;1.36;57.02;101090.44;339347;28;1328;-68
2022/01/19 00:41:42;;;;;;;313.20;64.93;;;;;;;1.32;56.79;101086.94;342114;28;1306;-68
2022/01/19 00:41:53;;;;;;;312.93;65.10;;;;;;;1.32;56.57;101091.22;342043;28;1277;-68
2022/01/19 00:42:03;;;;;;;310.80;64.63;;;;;;;1.33;55.96;101092.94;341921;28;1239;-68
2022/01/19 00:42:13;;;;;;;309.77;65.10;;;;;;;1.34;56.27;101085.25;341963;28;1338;-68
2022/01/19 00:42:24;;;;;;;309.27;64.88;;;;;;;1.36;56.23;101077.53;340862;28;802;-68
2022/01/19 00:42:34;;;;;;;309.67;64.93;;;;;;;1.38;56.67;101087.88;339363;29;1252;-68
2022/01/19 00:42:45;;;;;;;311.27;65.20;;;;;;;1.39;56.12;101087.91;336821;29;1056;-68
2022/01/19 00:42:55;;;;;;;313.30;65.40;;;;;;;1.40;56.21;101091.38;336842;29;1011;-68
2022/01/19 00:43:06;;;;;;;314.80;65.65;;;;;;;1.39;56.53;101085.34;341820;28;1350;-68
2022/01/19 00:43:17;;;;;;;314.40;65.90;;;;;;;1.40;56.76;101087.09;338343;28;1523;-68
2022/01/19 00:43:27;;;;;;;313.83;65.87;;;;;;;1.39;56.82;101087.91;339535;28;826;-68
2022/01/19 00:43:38;;;;;;;311.70;65.65;;;;;;;1.36;56.52;101087.84;339112;28;936;-68
2022/01/19 00:43:48;;;;;;;313.93;65.90;;;;;;;1.34;56.15;101089.53;341096;28;1165;-68
2022/01/19 00:43:58;;;;;;;311.77;64.97;;;;;;;1.34;56.56;101089.53;338136;28;1562;-68
2022/01/19 00:44:09;;;;;;;316.83;65.60;;;;;;;1.35;56.64;101080.97;340677;28;1267;-68
2022/01/19 00:44:20;;;;;;;315.33;65.40;;;;;;;1.36;56.23;101081.84;338074;29;1400;-68
2022/01/19 00:44:30;;;;;;;313.45;65.90;;;;;;;1.37;56.22;101089.59;339401;29;845;-68
2022/01/19 00:44:41;;;;;;;310.10;65.20;;;;;;;1.36;56.51;101082.69;340394;28;1264;-68
2022/01/19 00:44:51;;;;;;;309.97;65.07;;;;;;;1.36;55.99;101085.28;336830;29;1614;-68
2022/01/19 00:45:03;;;;;;;310.60;64.75;;;;;;;1.38;56.11;101088.75;339408;29;1316;-68
2022/01/19 00:45:14;;;;;;;312.33;65.20;;;;;;;1.36;56.18;101082.69;339448;29;897;-68
2022/01/19 00:45:24;;;;;;;313.33;66.27;;;;;;;1.36;55.87;101080.13;343385;28;1391;-68
2022/01/19 00:45:35;;;;;;;312.35;65.93;;;;;;;1.38;56.09;101087.88;340717;28;1437;-68
2022/01/19 00:45:45;;;;;;;312.30;66.23;;;;;;;1.39;56.34;101087.91;340621;28;920;-68
2022/01/19 00:45:56;;;;;;;311.40;65.20;;;;;;;1.40;56.09;101092.25;336948;29;815;-68
2022/01/19 00:46:06;;;;;;;311.55;64.72;;;;;;;1.42;55.73;101093.13;339431;29;830;-68
2022/01/19 00:46:16;;;;;;;310.87;64.60;;;;;;;1.41;56.69;101091.41;339575;29;1263;-68
2022/01/19 00:46:27;;;;;;;311.63;65.30;;;;;;;1.40;56.39;101089.66;343438;28;1369;-68
2022/01/19 00:46:37;;;;;;;311.80;65.25;;;;;;;1.41;56.96;101090.53;343083;28;1644;-68
2022/01/19 00:46:48;;;;;;;313.50;65.27;;;;;;;1.39;55.81;101084.47;343418;28;861;-68
2022/01/19 00:46:58;;;;;;;312.83;64.20;;;;;;;1.40;56.05;101093.94;338056;28;1338;-68
2022/01/19 00:47:08;;;;;;;312.00;63.93;;;;;;;1.39;56.48;101087.91;338252;29;918;-68
2022/01/19 00:47:19;;;;;;;309.40;63.63;;;;;;;1.40;56.22;101084.50;342187;28;1349;-68
2022/01/19 00:47:29;;;;;;;308.07;63.40;;;;;;;1.40;55.82;101091.38;342183;28;1306;-68
2022/01/19 00:47:40;;;;;;;307.52;63.28;;;;;;;1.42;56.13;101093.13;340692;28;1240;-68
2022/01/19 00:47:51;;;;;;;308.38;63.92;;;;;;;1.43;56.15;101092.31;339344;29;1374;-68
2022/01/19 00:48:01;;;;;;;310.07;64.13;;;;;;;1.45;55.71;101087.19;342075;28;1515;-68
2022/01/19 00:48:11;;;;;;;311.00;64.78;;;;;;;1.45;56.47;101090.63;342427;28;868;-68
2022/01/19 00:48:22;;;;;;;310.70;64.67;;;;;;;1.46;56.38;101094.94;338091;28;1280;-68
2022/01/19 00:48:32;;;;;;;310.17;65.35;;;;;;;1.43;55.84;101094.88;340198;28;1574;-68
2022/01/19 00:48:42;;;;;;;312.90;66.30;;;;;;;1.40;55.80;101086.22;337736;28;1835;-68
2022/01/19 00:48:53;;;;;;;313.33;66.45;;;;;;;1.37;55.49;101087.03;341478;28;1755;-68
2022/01/19 00:49:03;;;;;;;313.87;66.80;;;;;;;1.38;56.33;101088.75;339244;28;1316;-68
2022/01/19 00:49:14;;;;;;;311.27;66.03;;;;;;;1.38;56.39;101080.16;342016;28;1197;-68
2022/01/19 00:49:24;;;;;;;311.95;66.65;;;;;;;1.38;56.20;101082.72;339415;28;1374;-68
2022/01/19 00:49:34;;;;;;;310.87;66.67;;;;;;;1.39;55.81;101087.91;342089;28;1668;-68
2022/01/19 00:49:45;;;;;;;310.90;65.75;;;;;;;1.38;56.57;101083.59;341961;28;1777;-69
2022/01/19 00:49:55;;;;;;;310.47;65.13;;;;;;;1.38;56.33;101086.19;340699;28;988;-69